Aviation Digital Data Service (ADDS)

Output produced by METARs form (1321 UTC 24 August 2019)
found at http://www.aviationweather.gov/metar/data/
 
METAR text: PTRO 241252Z 23005KT 14SM SCT016 BKN110 OVC290 25/23 A2981
Conditions at: PTRO (BABELTHUAP/KOROR, FM) observed 1252 UTC 24 August 2019
Temperature: 25.0°C (77°F)
Dewpoint: 23.0°C (73°F) [RH = 89%]
Pressure (altimeter): 29.81 inches Hg (1009.6 mb)
Winds: from the SW (230 degrees) at 6 MPH (5 knots; 2.6 m/s)
Visibility: 14 miles (23 km)
Ceiling: 11000 feet AGL
Clouds: scattered clouds at 1600 feet AGL
broken clouds at 11000 feet AGL
overcast cloud deck at 29000 feet AGL
Weather: no significant weather observed at this time

METAR text: PTRO 241153Z 26006KT 14SM SCT016 BKN110 OVC290 25/23 A2982
Conditions at: PTRO (BABELTHUAP/KOROR, FM) observed 1153 UTC 24 August 2019
Temperature: 25.0°C (77°F)
Dewpoint: 23.0°C (73°F) [RH = 89%]
Pressure (altimeter): 29.82 inches Hg (1009.9 mb)
Winds: from the W (260 degrees) at 7 MPH (6 knots; 3.1 m/s)
Visibility: 14 miles (23 km)
Ceiling: 11000 feet AGL
Clouds: scattered clouds at 1600 feet AGL
broken clouds at 11000 feet AGL
overcast cloud deck at 29000 feet AGL
Weather: no significant weather observed at this time

METAR text: PTRO 241055Z 25008KT 14SM SCT016 BKN110 OVC290 25/24 A2982
Conditions at: PTRO (BABELTHUAP/KOROR, FM) observed 1055 UTC 24 August 2019
Temperature: 25.0°C (77°F)
Dewpoint: 24.0°C (75°F) [RH = 94%]
Pressure (altimeter): 29.82 inches Hg (1009.9 mb)
Winds: from the WSW (250 degrees) at 9 MPH (8 knots; 4.1 m/s)
Visibility: 14 miles (23 km)
Ceiling: 11000 feet AGL
Clouds: scattered clouds at 1600 feet AGL
broken clouds at 11000 feet AGL
overcast cloud deck at 29000 feet AGL
Weather: no significant weather observed at this time

METAR text: PTRO 240953Z 26006KT 14SM SCT016CB BKN110 OVC290 25/23 A2981 RMK CB ALQDS
Conditions at: PTRO (BABELTHUAP/KOROR, FM) observed 0953 UTC 24 August 2019
Temperature: 25.0°C (77°F)
Dewpoint: 23.0°C (73°F) [RH = 89%]
Pressure (altimeter): 29.81 inches Hg (1009.6 mb)
Winds: from the W (260 degrees) at 7 MPH (6 knots; 3.1 m/s)
Visibility: 14 miles (23 km)
Ceiling: 11000 feet AGL
Clouds: scattered clouds at 1600 feet AGL
broken clouds at 11000 feet AGL
overcast cloud deck at 29000 feet AGL
Weather: no significant weather observed at this time

METAR text: PTRO 240851Z 25012KT 14SM SCT016CB BKN110 OVC290 25/24 A2978 RMK CB ALQDS
Conditions at: PTRO (BABELTHUAP/KOROR, FM) observed 0851 UTC 24 August 2019
Temperature: 25.0°C (77°F)
Dewpoint: 24.0°C (75°F) [RH = 94%]
Pressure (altimeter): 29.78 inches Hg (1008.5 mb)
Winds: from the WSW (250 degrees) at 14 MPH (12 knots; 6.2 m/s)
Visibility: 14 miles (23 km)
Ceiling: 11000 feet AGL
Clouds: scattered clouds at 1600 feet AGL
broken clouds at 11000 feet AGL
overcast cloud deck at 29000 feet AGL
Weather: no significant weather observed at this time

METAR text: PTRO 240754Z 26011KT 12SM -SHRA BKN015CB BKN110 OVC290 25/23 A2979 RMK CB ALQDS
Conditions at: PTRO (BABELTHUAP/KOROR, FM) observed 0754 UTC 24 August 2019
Temperature: 25.0°C (77°F)
Dewpoint: 23.0°C (73°F) [RH = 89%]
Pressure (altimeter): 29.79 inches Hg (1008.9 mb)
Winds: from the W (260 degrees) at 13 MPH (11 knots; 5.7 m/s)
Visibility: 12 miles (19 km)
Ceiling: 1500 feet AGL
Clouds: broken clouds at 1500 feet AGL
broken clouds at 11000 feet AGL
overcast cloud deck at 29000 feet AGL
Weather: -SHRA  (light rain showers)

METAR text: PTRO 240650Z 27006KT 14SM BKN015CB BKN110 OVC290 25/23 A2979 RMK CB ALQDS
Conditions at: PTRO (BABELTHUAP/KOROR, FM) observed 0650 UTC 24 August 2019
Temperature: 25.0°C (77°F)
Dewpoint: 23.0°C (73°F) [RH = 89%]
Pressure (altimeter): 29.79 inches Hg (1008.9 mb)
Winds: from the W (270 degrees) at 7 MPH (6 knots; 3.1 m/s)
Visibility: 14 miles (23 km)
Ceiling: 1500 feet AGL
Clouds: broken clouds at 1500 feet AGL
broken clouds at 11000 feet AGL
overcast cloud deck at 29000 feet AGL
Weather: no significant weather observed at this time

METAR text: PTRO 240550Z 28007KT 14SM BKN015CB BKN110 OVC290 24/23 A2981 RMK CB ALQDS
Conditions at: PTRO (BABELTHUAP/KOROR, FM) observed 0550 UTC 24 August 2019
Temperature: 24.0°C (75°F)
Dewpoint: 23.0°C (73°F) [RH = 94%]
Pressure (altimeter): 29.81 inches Hg (1009.6 mb)
Winds: from the W (280 degrees) at 8 MPH (7 knots; 3.6 m/s)
Visibility: 14 miles (23 km)
Ceiling: 1500 feet AGL
Clouds: broken clouds at 1500 feet AGL
broken clouds at 11000 feet AGL
overcast cloud deck at 29000 feet AGL
Weather: no significant weather observed at this time

METAR text: PTRO 240450Z 23004KT 11SM -SHRA BKN015CB BKN110 OVC290 24/23 A2984 RMK CB ALQDS
Conditions at: PTRO (BABELTHUAP/KOROR, FM) observed 0450 UTC 24 August 2019
Temperature: 24.0°C (75°F)
Dewpoint: 23.0°C (73°F) [RH = 94%]
Pressure (altimeter): 29.84 inches Hg (1010.6 mb)
Winds: from the SW (230 degrees) at 5 MPH (4 knots; 2.1 m/s)
Visibility: 11 miles (18 km)
Ceiling: 1500 feet AGL
Clouds: broken clouds at 1500 feet AGL
broken clouds at 11000 feet AGL
overcast cloud deck at 29000 feet AGL
Weather: -SHRA  (light rain showers)

METAR text: PTRO 240350Z 26004KT 10SM -SHRA OVC015CB 24/23 A2988 RMK CB ALQDS AND OHD
Conditions at: PTRO (BABELTHUAP/KOROR, FM) observed 0350 UTC 24 August 2019
Temperature: 24.0°C (75°F)
Dewpoint: 23.0°C (73°F) [RH = 94%]
Pressure (altimeter): 29.88 inches Hg (1011.9 mb)
Winds: from the W (260 degrees) at 5 MPH (4 knots; 2.1 m/s)
Visibility: 10 or more miles (16+ km)
Ceiling: 1500 feet AGL
Clouds: overcast cloud deck at 1500 feet AGL
Weather: -SHRA  (light rain showers)

METAR text: PTRO 240250Z 01003KT 8SM SHRA OVC015CB 23/22 A2989 RMK CB ALQDS AND OHD
Conditions at: PTRO (BABELTHUAP/KOROR, FM) observed 0250 UTC 24 August 2019
Temperature: 23.0°C (73°F)
Dewpoint: 22.0°C (72°F) [RH = 94%]
Pressure (altimeter): 29.89 inches Hg (1012.3 mb)
Winds: from the N (10 degrees) at 3 MPH (3 knots; 1.5 m/s)
Visibility: 8 miles (13 km)
Ceiling: 1500 feet AGL
Clouds: overcast cloud deck at 1500 feet AGL
Weather: SHRA  (rain showers)

METAR text: PTRO 240154Z 34006KT 4SM +SHRA OVC015CB 24/23 A2990 RMK CB ALQDS AND OHD
Conditions at: PTRO (BABELTHUAP/KOROR, FM) observed 0154 UTC 24 August 2019
Temperature: 24.0°C (75°F)
Dewpoint: 23.0°C (73°F) [RH = 94%]
Pressure (altimeter): 29.90 inches Hg (1012.6 mb)
Winds: from the NNW (340 degrees) at 7 MPH (6 knots; 3.1 m/s)
Visibility: 4 miles ( 6 km)
Ceiling: 1500 feet AGL
Clouds: overcast cloud deck at 1500 feet AGL
Weather: +SHRA  (heavy rain showers)

METAR text: PTRO 240050Z 32003KT 10SM -SHRA BKN015CB OVC120 24/23 A2989 RMK CB ALQDS AND OHD
Conditions at: PTRO (BABELTHUAP/KOROR, FM) observed 0050 UTC 24 August 2019
Temperature: 24.0°C (75°F)
Dewpoint: 23.0°C (73°F) [RH = 94%]
Pressure (altimeter): 29.89 inches Hg (1012.3 mb)
Winds: from the NW (320 degrees) at 3 MPH (3 knots; 1.5 m/s)
Visibility: 10 or more miles (16+ km)
Ceiling: 1500 feet AGL
Clouds: broken clouds at 1500 feet AGL
overcast cloud deck at 12000 feet AGL
Weather: -SHRA  (light rain showers)

METAR text: PTRO 232350Z 29004KT 14SM -SHRA BKN015CB BKN110 OVC290 26/24 A2989 RMK CB ALQDS AND OHD
Conditions at: PTRO (BABELTHUAP/KOROR, FM) observed 2350 UTC 23 August 2019
Temperature: 26.0°C (79°F)
Dewpoint: 24.0°C (75°F) [RH = 89%]
Pressure (altimeter): 29.89 inches Hg (1012.3 mb)
Winds: from the WNW (290 degrees) at 5 MPH (4 knots; 2.1 m/s)
Visibility: 14 miles (23 km)
Ceiling: 1500 feet AGL
Clouds: broken clouds at 1500 feet AGL
broken clouds at 11000 feet AGL
overcast cloud deck at 29000 feet AGL
Weather: -SHRA  (light rain showers)

METAR text: PTRO 232250Z 29008KT 14SM BKN015CB OVC290 25/24 A2986 RMK CB ALQDS AND OHD
Conditions at: PTRO (BABELTHUAP/KOROR, FM) observed 2250 UTC 23 August 2019
Temperature: 25.0°C (77°F)
Dewpoint: 24.0°C (75°F) [RH = 94%]
Pressure (altimeter): 29.86 inches Hg (1011.3 mb)
Winds: from the WNW (290 degrees) at 9 MPH (8 knots; 4.1 m/s)
Visibility: 14 miles (23 km)
Ceiling: 1500 feet AGL
Clouds: broken clouds at 1500 feet AGL
overcast cloud deck at 29000 feet AGL
Weather: no significant weather observed at this time

METAR text: PTRO 232150Z 31011KT 14SM BKN015CB OVC300 25/24 A2984 RMK CB ALQDS AND OHD
Conditions at: PTRO (BABELTHUAP/KOROR, FM) observed 2150 UTC 23 August 2019
Temperature: 25.0°C (77°F)
Dewpoint: 24.0°C (75°F) [RH = 94%]
Pressure (altimeter): 29.84 inches Hg (1010.6 mb)
Winds: from the NW (310 degrees) at 13 MPH (11 knots; 5.7 m/s)
Visibility: 14 miles (23 km)
Ceiling: 1500 feet AGL
Clouds: broken clouds at 1500 feet AGL
overcast cloud deck at 30000 feet AGL
Weather: no significant weather observed at this time

METAR text: PTRO 232050Z 26011G19KT 14SM BKN015CB OVC300 26/24 A2985 RMK CB ALQDS AND OHD
Conditions at: PTRO (BABELTHUAP/KOROR, FM) observed 2050 UTC 23 August 2019
Temperature: 26.0°C (79°F)
Dewpoint: 24.0°C (75°F) [RH = 89%]
Pressure (altimeter): 29.85 inches Hg (1010.9 mb)
Winds: from the W (260 degrees) at 13 MPH (11 knots; 5.7 m/s)
gusting to 22 MPH (19 knots; 9.8 m/s)
Visibility: 14 miles (23 km)
Ceiling: 1500 feet AGL
Clouds: broken clouds at 1500 feet AGL
overcast cloud deck at 30000 feet AGL
Weather: no significant weather observed at this time

METAR text: PTRO 231950Z 30008KT 15SM SCT016 BKN120 BKN300 28/25 A2983
Conditions at: PTRO (BABELTHUAP/KOROR, FM) observed 1950 UTC 23 August 2019
Temperature: 28.0°C (82°F)
Dewpoint: 25.0°C (77°F) [RH = 84%]
Pressure (altimeter): 29.83 inches Hg (1010.2 mb)
Winds: from the WNW (300 degrees) at 9 MPH (8 knots; 4.1 m/s)
Visibility: 15 miles (24 km)
Ceiling: 12000 feet AGL
Clouds: scattered clouds at 1600 feet AGL
broken clouds at 12000 feet AGL
broken clouds at 30000 feet AGL
Weather: no significant weather observed at this time

METAR text: PTRO 231850Z 28010KT 15SM SCT016 BKN300 28/25 A2982
Conditions at: PTRO (BABELTHUAP/KOROR, FM) observed 1850 UTC 23 August 2019
Temperature: 28.0°C (82°F)
Dewpoint: 25.0°C (77°F) [RH = 84%]
Pressure (altimeter): 29.82 inches Hg (1009.9 mb)
Winds: from the W (280 degrees) at 12 MPH (10 knots; 5.1 m/s)
Visibility: 15 miles (24 km)
Ceiling: 30000 feet AGL
Clouds: scattered clouds at 1600 feet AGL
broken clouds at 30000 feet AGL
Weather: no significant weather observed at this time

METAR text: PTRO 231750Z 27010G16KT 15SM SCT016 BKN300 28/25 A2981
Conditions at: PTRO (BABELTHUAP/KOROR, FM) observed 1750 UTC 23 August 2019
Temperature: 28.0°C (82°F)
Dewpoint: 25.0°C (77°F) [RH = 84%]
Pressure (altimeter): 29.81 inches Hg (1009.6 mb)
Winds: from the W (270 degrees) at 12 MPH (10 knots; 5.1 m/s)
gusting to 18 MPH (16 knots; 8.2 m/s)
Visibility: 15 miles (24 km)
Ceiling: 30000 feet AGL
Clouds: scattered clouds at 1600 feet AGL
broken clouds at 30000 feet AGL
Weather: no significant weather observed at this time

METAR text: PTRO 231650Z 28009KT 15SM SCT016 BKN300 27/25 A2982
Conditions at: PTRO (BABELTHUAP/KOROR, FM) observed 1650 UTC 23 August 2019
Temperature: 27.0°C (81°F)
Dewpoint: 25.0°C (77°F) [RH = 89%]
Pressure (altimeter): 29.82 inches Hg (1009.9 mb)
Winds: from the W (280 degrees) at 10 MPH (9 knots; 4.6 m/s)
Visibility: 15 miles (24 km)
Ceiling: 30000 feet AGL
Clouds: scattered clouds at 1600 feet AGL
broken clouds at 30000 feet AGL
Weather: no significant weather observed at this time

METAR text: PTRO 231550Z 27008KT 14SM SCT016TCU BKN120 BKN300 27/25 A2983 RMK TCU ALQDS
Conditions at: PTRO (BABELTHUAP/KOROR, FM) observed 1550 UTC 23 August 2019
Temperature: 27.0°C (81°F)
Dewpoint: 25.0°C (77°F) [RH = 89%]
Pressure (altimeter): 29.83 inches Hg (1010.2 mb)
Winds: from the W (270 degrees) at 9 MPH (8 knots; 4.1 m/s)
Visibility: 14 miles (23 km)
Ceiling: 12000 feet AGL
Clouds: scattered clouds at 1600 feet AGL
broken clouds at 12000 feet AGL
broken clouds at 30000 feet AGL
Weather: no significant weather observed at this time

METAR text: PTRO 231450Z 27007KT 14SM BKN016TCU BKN120 OVC300 27/24 A2984 RMK TCU ALQDS
Conditions at: PTRO (BABELTHUAP/KOROR, FM) observed 1450 UTC 23 August 2019
Temperature: 27.0°C (81°F)
Dewpoint: 24.0°C (75°F) [RH = 84%]
Pressure (altimeter): 29.84 inches Hg (1010.6 mb)
Winds: from the W (270 degrees) at 8 MPH (7 knots; 3.6 m/s)
Visibility: 14 miles (23 km)
Ceiling: 1600 feet AGL
Clouds: broken clouds at 1600 feet AGL
broken clouds at 12000 feet AGL
overcast cloud deck at 30000 feet AGL
Weather: no significant weather observed at this time

METAR text: PTRO 231350Z 26009KT 14SM BKN016TCU BKN120 OVC300 27/25 A2986 RMK TCU ALQDS
Conditions at: PTRO (BABELTHUAP/KOROR, FM) observed 1350 UTC 23 August 2019
Temperature: 27.0°C (81°F)
Dewpoint: 25.0°C (77°F) [RH = 89%]
Pressure (altimeter): 29.86 inches Hg (1011.3 mb)
Winds: from the W (260 degrees) at 10 MPH (9 knots; 4.6 m/s)
Visibility: 14 miles (23 km)
Ceiling: 1600 feet AGL
Clouds: broken clouds at 1600 feet AGL
broken clouds at 12000 feet AGL
overcast cloud deck at 30000 feet AGL
Weather: no significant weather observed at this time

METAR text: PTRO 231250Z 25006KT 14SM BKN016CB BKN120 OVC300 27/25 A2986 RMK CB ALQDS
Conditions at: PTRO (BABELTHUAP/KOROR, FM) observed 1250 UTC 23 August 2019
Temperature: 27.0°C (81°F)
Dewpoint: 25.0°C (77°F) [RH = 89%]
Pressure (altimeter): 29.86 inches Hg (1011.3 mb)
Winds: from the WSW (250 degrees) at 7 MPH (6 knots; 3.1 m/s)
Visibility: 14 miles (23 km)
Ceiling: 1600 feet AGL
Clouds: broken clouds at 1600 feet AGL
broken clouds at 12000 feet AGL
overcast cloud deck at 30000 feet AGL
Weather: no significant weather observed at this time

METAR text: PTRO 231150Z 27007KT 13SM -SHRA BKN016CB BKN110 OVC300 28/25 A2986 RMK CB ALQDS
Conditions at: PTRO (BABELTHUAP/KOROR, FM) observed 1150 UTC 23 August 2019
Temperature: 28.0°C (82°F)
Dewpoint: 25.0°C (77°F) [RH = 84%]
Pressure (altimeter): 29.86 inches Hg (1011.3 mb)
Winds: from the W (270 degrees) at 8 MPH (7 knots; 3.6 m/s)
Visibility: 13 miles (21 km)
Ceiling: 1600 feet AGL
Clouds: broken clouds at 1600 feet AGL
broken clouds at 11000 feet AGL
overcast cloud deck at 30000 feet AGL
Weather: -SHRA  (light rain showers)

METAR text: PTRO 231050Z 26006KT 13SM -SHRA BKN016CB BKN110 OVC300 27/25 A2986 RMK CB ALQDS
Conditions at: PTRO (BABELTHUAP/KOROR, FM) observed 1050 UTC 23 August 2019
Temperature: 27.0°C (81°F)
Dewpoint: 25.0°C (77°F) [RH = 89%]
Pressure (altimeter): 29.86 inches Hg (1011.3 mb)
Winds: from the W (260 degrees) at 7 MPH (6 knots; 3.1 m/s)
Visibility: 13 miles (21 km)
Ceiling: 1600 feet AGL
Clouds: broken clouds at 1600 feet AGL
broken clouds at 11000 feet AGL
overcast cloud deck at 30000 feet AGL
Weather: -SHRA  (light rain showers)

METAR text: PTRO 230950Z 21007KT 14SM SCT016TCU BKN120 OVC300 28/25 A2984 RMK TCU ALQDS
Conditions at: PTRO (BABELTHUAP/KOROR, FM) observed 0950 UTC 23 August 2019
Temperature: 28.0°C (82°F)
Dewpoint: 25.0°C (77°F) [RH = 84%]
Pressure (altimeter): 29.84 inches Hg (1010.6 mb)
Winds: from the SSW (210 degrees) at 8 MPH (7 knots; 3.6 m/s)
Visibility: 14 miles (23 km)
Ceiling: 12000 feet AGL
Clouds: scattered clouds at 1600 feet AGL
broken clouds at 12000 feet AGL
overcast cloud deck at 30000 feet AGL
Weather: no significant weather observed at this time

METAR text: PTRO 230850Z 25007KT 15SM SCT016TCU BKN120 OVC300 28/24 A2982 RMK TCU ALQDS
Conditions at: PTRO (BABELTHUAP/KOROR, FM) observed 0850 UTC 23 August 2019
Temperature: 28.0°C (82°F)
Dewpoint: 24.0°C (75°F) [RH = 79%]
Pressure (altimeter): 29.82 inches Hg (1009.9 mb)
Winds: from the WSW (250 degrees) at 8 MPH (7 knots; 3.6 m/s)
Visibility: 15 miles (24 km)
Ceiling: 12000 feet AGL
Clouds: scattered clouds at 1600 feet AGL
broken clouds at 12000 feet AGL
overcast cloud deck at 30000 feet AGL
Weather: no significant weather observed at this time

METAR text: PTRO 230750Z COR 24008KT 15SM SCT016TCU BKN120 OVC300 29/24 A2981 RMK TCU ALQDS
Conditions at: PTRO (BABELTHUAP/KOROR, FM) observed 0750 UTC 23 August 2019
Temperature: 29.0°C (84°F)
Dewpoint: 24.0°C (75°F) [RH = 74%]
Pressure (altimeter): 29.81 inches Hg (1009.6 mb)
Winds: from the WSW (240 degrees) at 9 MPH (8 knots; 4.1 m/s)
Visibility: 15 miles (24 km)
Ceiling: 12000 feet AGL
Clouds: scattered clouds at 1600 feet AGL
broken clouds at 12000 feet AGL
overcast cloud deck at 30000 feet AGL
Weather: no significant weather observed at this time

METAR text: PTRO 230650Z 24008KT 15SM SCT016TCU BKN120 OVC300 29/24 A2981 RMK TCU ALQDS
Conditions at: PTRO (BABELTHUAP/KOROR, FM) observed 0650 UTC 23 August 2019
Temperature: 29.0°C (84°F)
Dewpoint: 24.0°C (75°F) [RH = 74%]
Pressure (altimeter): 29.81 inches Hg (1009.6 mb)
Winds: from the WSW (240 degrees) at 9 MPH (8 knots; 4.1 m/s)
Visibility: 15 miles (24 km)
Ceiling: 12000 feet AGL
Clouds: scattered clouds at 1600 feet AGL
broken clouds at 12000 feet AGL
overcast cloud deck at 30000 feet AGL
Weather: no significant weather observed at this time

METAR text: PTRO 230550Z COR 26008KT 15SM BKN016 BKN120 OVC300 29/24 A2980
Conditions at: PTRO (BABELTHUAP/KOROR, FM) observed 0550 UTC 23 August 2019
Temperature: 29.0°C (84°F)
Dewpoint: 24.0°C (75°F) [RH = 74%]
Pressure (altimeter): 29.80 inches Hg (1009.2 mb)
Winds: from the W (260 degrees) at 9 MPH (8 knots; 4.1 m/s)
Visibility: 15 miles (24 km)
Ceiling: 1600 feet AGL
Clouds: broken clouds at 1600 feet AGL
broken clouds at 12000 feet AGL
overcast cloud deck at 30000 feet AGL
Weather: no significant weather observed at this time

METAR text: PTRO 230450Z 26010KT 15SM BKN016CB BKN120 OVC300 29/24 A2982 RMK CB N-E MOV E
Conditions at: PTRO (BABELTHUAP/KOROR, FM) observed 0450 UTC 23 August 2019
Temperature: 29.0°C (84°F)
Dewpoint: 24.0°C (75°F) [RH = 74%]
Pressure (altimeter): 29.82 inches Hg (1009.9 mb)
Winds: from the W (260 degrees) at 12 MPH (10 knots; 5.1 m/s)
Visibility: 15 miles (24 km)
Ceiling: 1600 feet AGL
Clouds: broken clouds at 1600 feet AGL
broken clouds at 12000 feet AGL
overcast cloud deck at 30000 feet AGL
Weather: no significant weather observed at this time

METAR text: PTRO 230350Z 25008KT 15SM BKN016 BKN120 OVC300 30/25 A2984
Conditions at: PTRO (BABELTHUAP/KOROR, FM) observed 0350 UTC 23 August 2019
Temperature: 30.0°C (86°F)
Dewpoint: 25.0°C (77°F) [RH = 75%]
Pressure (altimeter): 29.84 inches Hg (1010.6 mb)
Winds: from the WSW (250 degrees) at 9 MPH (8 knots; 4.1 m/s)
Visibility: 15 miles (24 km)
Ceiling: 1600 feet AGL
Clouds: broken clouds at 1600 feet AGL
broken clouds at 12000 feet AGL
overcast cloud deck at 30000 feet AGL
Weather: no significant weather observed at this time

METAR text: PTRO 230250Z 25009KT 15SM BKN106 BKN120 BKN300 3025 A2987
Conditions at: PTRO (BABELTHUAP/KOROR, FM) observed 0250 UTC 23 August 2019
Temperature: missing
Dewpoint: missing
Pressure (altimeter): 29.87 inches Hg (1011.6 mb)
Winds: from the WSW (250 degrees) at 10 MPH (9 knots; 4.6 m/s)
Visibility: 15 miles (24 km)
Ceiling: 10600 feet AGL
Clouds: broken clouds at 10600 feet AGL
broken clouds at 12000 feet AGL
broken clouds at 30000 feet AGL
Weather: no significant weather observed at this time

METAR text: PTRO 230205Z 25009KT 15SM BKN016 BKN120 BKN300 30/25 A2987
Conditions at: PTRO (BABELTHUAP/KOROR, FM) observed 0205 UTC 23 August 2019
Temperature: 30.0°C (86°F)
Dewpoint: 25.0°C (77°F) [RH = 75%]
Pressure (altimeter): 29.87 inches Hg (1011.6 mb)
Winds: from the WSW (250 degrees) at 10 MPH (9 knots; 4.6 m/s)
Visibility: 15 miles (24 km)
Ceiling: 1600 feet AGL
Clouds: broken clouds at 1600 feet AGL
broken clouds at 12000 feet AGL
broken clouds at 30000 feet AGL
Weather: no significant weather observed at this time

METAR text: PTRO 230150Z 23005KT 15SM BKN016 BKN120 BKN300 30/25 A2989
Conditions at: PTRO (BABELTHUAP/KOROR, FM) observed 0150 UTC 23 August 2019
Temperature: 30.0°C (86°F)
Dewpoint: 25.0°C (77°F) [RH = 75%]
Pressure (altimeter): 29.89 inches Hg (1012.3 mb)
Winds: from the SW (230 degrees) at 6 MPH (5 knots; 2.6 m/s)
Visibility: 15 miles (24 km)
Ceiling: 1600 feet AGL
Clouds: broken clouds at 1600 feet AGL
broken clouds at 12000 feet AGL
broken clouds at 30000 feet AGL
Weather: no significant weather observed at this time

Forecast for: PTRO (BABELTHUAP/KOROR, FM)
Text: PTRO 241130Z 2412/2512 25010KT P6SM VCSH SCT016 BKN110
Forecast period: 1200 UTC 24 August 2019 to 1200 UTC 25 August 2019
Forecast type: FROM: standard forecast or significant change
Winds: from the WSW (250 degrees) at 12 MPH (10 knots; 5.1 m/s)
Visibility: 6 or more miles 10+ km)
Ceiling: 11000 feet AGL
Clouds: scattered clouds at 1600 feet AGL
broken clouds at 11000 feet AGL
Weather: VCSH  (showers in vicinity)